createdAt,value
2023-05-22T00:02:28.168Z,45.12
2023-05-22T00:05:26.398Z,45.10
2023-05-22T00:08:05.284Z,45.71
2023-05-22T00:10:37.786Z,45.17
2023-05-22T00:13:15.725Z,45.57
2023-05-22T00:15:47.876Z,45.20
2023-05-22T00:18:22.809Z,45.22
2023-05-22T00:20:55.019Z,45.36
2023-05-22T00:23:33.706Z,45.27
2023-05-22T00:26:05.991Z,45.57
2023-05-22T00:28:38.632Z,45.51
2023-05-22T00:31:12.639Z,45.60
2023-05-22T00:33:46.403Z,45.46
2023-05-22T00:36:35.766Z,45.78
2023-05-22T00:39:17.123Z,45.75
2023-05-22T00:41:55.231Z,46.14
2023-05-22T00:44:34.830Z,46.28
2023-05-22T00:47:39.142Z,46.35
2023-05-22T00:50:14.670Z,46.06
2023-05-22T00:52:49.030Z,46.25
2023-05-22T00:55:27.165Z,46.04
2023-05-22T00:58:08.423Z,46.14
2023-05-22T01:01:13.599Z,46.20
2023-05-22T01:03:47.525Z,46.39
2023-05-22T01:06:21.927Z,46.11
2023-05-22T01:08:55.064Z,46.85
2023-05-22T01:11:36.846Z,46.51
2023-05-22T01:14:28.064Z,46.45
2023-05-22T01:17:23.021Z,47.04
2023-05-22T01:23:30.908Z,46.47
2023-05-22T01:26:46.629Z,46.47
2023-05-22T01:29:35.566Z,46.67
2023-05-22T01:35:26.183Z,46.70
2023-05-22T01:38:02.873Z,46.91
2023-05-22T01:40:40.126Z,47.02
2023-05-22T01:43:12.526Z,46.67
2023-05-22T01:45:48.079Z,46.95
2023-05-22T01:48:25.111Z,46.64
2023-05-22T01:51:07.107Z,46.79
2023-05-22T01:53:46.643Z,46.94
2023-05-22T01:56:31.193Z,46.71
2023-05-22T01:59:12.587Z,46.89
2023-05-22T02:01:49.525Z,46.68
2023-05-22T02:04:26.647Z,46.72
2023-05-22T02:07:03.028Z,46.84
2023-05-22T02:09:36.967Z,46.82
2023-05-22T02:12:28.710Z,46.33
2023-05-22T02:15:03.790Z,46.29
2023-05-22T02:17:43.115Z,46.95
2023-05-22T02:20:19.186Z,46.66
2023-05-22T02:22:51.784Z,47.18
2023-05-22T02:25:40.567Z,47.55
2023-05-22T02:28:12.791Z,46.96
2023-05-22T02:30:44.742Z,47.31
2023-05-22T02:33:18.497Z,47.53
2023-05-22T02:35:53.274Z,47.62
2023-05-22T02:38:26.158Z,47.49
2023-05-22T02:40:58.224Z,47.80
2023-05-22T02:43:34.022Z,47.89
2023-05-22T02:46:05.980Z,47.70
2023-05-22T02:48:39.030Z,47.98
2023-05-22T02:51:15.270Z,48.06
2023-05-22T02:53:48.350Z,47.96
2023-05-22T02:56:21.877Z,48.08
2023-05-22T02:58:55.042Z,48.02
2023-05-22T03:01:27.295Z,48.54
2023-05-22T03:03:59.847Z,48.64
2023-05-22T03:06:35.627Z,48.65
2023-05-22T03:09:09.201Z,48.57
2023-05-22T03:11:41.342Z,49.11
2023-05-22T03:14:14.627Z,48.79
2023-05-22T03:16:46.988Z,49.38
2023-05-22T03:19:20.355Z,49.38
2023-05-22T03:21:55.120Z,49.71
2023-05-22T03:24:27.833Z,49.34
2023-05-22T03:26:59.987Z,49.47
2023-05-22T03:29:34.551Z,49.59
2023-05-22T03:32:06.730Z,49.75
2023-05-22T03:34:39.471Z,49.87
2023-05-22T03:37:14.611Z,50.06
2023-05-22T03:39:47.306Z,49.93
2023-05-22T03:42:19.794Z,49.88
2023-05-22T03:44:52.639Z,50.01
2023-05-22T03:47:24.670Z,49.77
2023-05-22T03:49:57.007Z,49.91
2023-05-22T03:52:31.648Z,49.66
2023-05-22T03:55:05.304Z,50.27
2023-05-22T03:57:37.458Z,49.77
2023-05-22T04:00:14.024Z,49.99
2023-05-22T04:06:07.921Z,50.15
2023-05-22T04:08:43.422Z,50.16
2023-05-22T04:14:25.272Z,49.86
2023-05-22T04:16:58.544Z,50.07
2023-05-22T04:19:31.538Z,49.90
2023-05-22T04:22:05.908Z,50.23
2023-05-22T04:24:43.623Z,50.31
2023-05-22T04:27:15.995Z,49.82
2023-05-22T04:29:48.702Z,49.95
2023-05-22T04:32:22.188Z,49.67
2023-05-22T04:34:54.744Z,49.74
2023-05-22T04:37:29.227Z,49.63
2023-05-22T04:40:11.763Z,49.57
2023-05-22T04:42:43.975Z,48.89
2023-05-22T04:45:20.102Z,48.73
2023-05-22T04:47:52.899Z,49.19
2023-05-22T04:50:25.976Z,48.73
2023-05-22T04:52:58.018Z,48.50
2023-05-22T04:55:47.006Z,49.00
2023-05-22T04:58:54.283Z,48.77
2023-05-22T05:01:30.986Z,48.90
2023-05-22T05:04:54.111Z,48.98
2023-05-22T05:07:27.025Z,48.49
2023-05-22T05:09:59.178Z,48.60
2023-05-22T05:12:34.999Z,48.09
2023-05-22T05:15:07.661Z,47.90
2023-05-22T05:17:40.666Z,47.89
2023-05-22T05:20:14.894Z,47.84
2023-05-22T05:22:47.758Z,47.90
2023-05-22T05:25:20.917Z,47.37
2023-05-22T05:27:56.949Z,46.81
2023-05-22T05:30:31.984Z,47.27
2023-05-22T05:33:05.151Z,47.76
2023-05-22T05:35:41.412Z,47.75
2023-05-22T05:38:17.632Z,47.05
2023-05-22T05:40:50.664Z,46.79
2023-05-22T05:43:26.749Z,46.61
2023-05-22T05:46:02.618Z,45.89
2023-05-22T05:48:35.406Z,45.44
2023-05-22T05:51:07.662Z,44.60
2023-05-22T05:53:41.315Z,44.29
2023-05-22T05:56:14.108Z,43.97
2023-05-22T05:58:49.642Z,43.27
2023-05-22T06:01:24.992Z,43.60
2023-05-22T06:04:00.338Z,43.55
2023-05-22T06:06:40.078Z,42.87
2023-05-22T06:09:16.435Z,43.68
2023-05-22T06:11:51.784Z,42.84
2023-05-22T06:14:31.646Z,42.55
2023-05-22T06:17:09.775Z,41.94
2023-05-22T06:19:42.796Z,42.57
2023-05-22T06:22:17.430Z,41.73
2023-05-22T06:24:53.155Z,40.91
2023-05-22T06:27:27.777Z,41.49
2023-05-22T06:30:04.806Z,41.15
2023-05-22T06:32:37.957Z,40.78
2023-05-22T06:35:12.532Z,42.34
2023-05-22T06:37:44.628Z,43.89
2023-05-22T06:40:17.556Z,40.08
2023-05-22T06:42:52.226Z,39.64
2023-05-22T06:45:28.375Z,40.48
2023-05-22T06:48:28.131Z,39.24
2023-05-22T06:51:01.641Z,41.44
2023-05-22T06:53:35.024Z,39.44
2023-05-22T06:56:12.450Z,38.85
2023-05-22T06:58:45.227Z,38.96
2023-05-22T07:01:22.311Z,38.70
2023-05-22T07:03:54.465Z,39.12
2023-05-22T07:06:28.189Z,38.69
2023-05-22T07:09:01.770Z,38.49
2023-05-22T07:11:41.008Z,37.85
2023-05-22T07:14:19.441Z,37.96
2023-05-22T07:17:13.384Z,37.75
2023-05-22T07:19:46.336Z,37.74
2023-05-22T07:22:22.332Z,38.45
2023-05-22T07:25:05.528Z,38.40
2023-05-22T07:27:41.628Z,37.10
2023-05-22T07:30:16.145Z,35.95
2023-05-22T07:32:53.550Z,36.27
2023-05-22T07:35:35.982Z,37.14
2023-05-22T07:38:12.142Z,36.20
2023-05-22T07:40:49.099Z,35.86
2023-05-22T07:43:51.868Z,35.61
2023-05-22T07:46:24.977Z,35.27
2023-05-22T07:49:04.006Z,35.23
2023-05-22T07:51:37.184Z,35.06
2023-05-22T07:54:11.029Z,34.24
2023-05-22T07:56:48.821Z,33.39
2023-05-22T07:59:28.750Z,32.93
2023-05-22T08:02:02.719Z,33.68
2023-05-22T08:04:42.658Z,34.39
2023-05-22T08:07:30.189Z,34.44
2023-05-22T08:13:08.660Z,33.89
2023-05-22T08:15:45.697Z,33.70
2023-05-22T08:18:21.945Z,33.77
2023-05-22T08:23:52.080Z,33.67
2023-05-22T08:26:37.578Z,33.09
2023-05-22T08:29:16.425Z,32.45
2023-05-22T08:34:51.300Z,34.09
2023-05-22T08:37:34.100Z,34.07
2023-05-22T08:43:20.816Z,34.36
2023-05-22T08:46:10.862Z,35.28
2023-05-22T08:49:07.291Z,34.02
2023-05-22T08:52:25.782Z,32.81
2023-05-22T08:55:36.705Z,32.41
2023-05-22T08:58:56.267Z,32.36
2023-05-22T09:08:30.422Z,32.28
2023-05-22T09:35:03.223Z,33.32
2023-05-22T09:46:34.907Z,34.16
2023-05-22T09:49:16.459Z,34.29
2023-05-22T09:52:19.194Z,34.72
2023-05-22T09:55:03.560Z,33.79
2023-05-22T09:57:51.713Z,33.17
2023-05-22T10:03:34.187Z,32.72
2023-05-22T10:06:13.659Z,32.38
2023-05-22T10:09:07.868Z,32.69
2023-05-22T10:11:45.242Z,32.96
2023-05-22T10:14:20.903Z,32.53
2023-05-22T10:17:00.602Z,33.26
2023-05-22T10:19:35.229Z,32.71
2023-05-22T10:22:10.509Z,32.80
2023-05-22T10:24:46.047Z,33.16
2023-05-22T10:27:22.172Z,33.37
2023-05-22T10:30:07.836Z,32.56
2023-05-22T10:32:54.170Z,32.39
2023-05-22T10:35:38.779Z,31.81
2023-05-22T10:41:59.360Z,31.87
2023-05-22T10:44:41.066Z,31.88
2023-05-22T11:00:22.278Z,30.41
2023-05-22T11:03:18.832Z,30.91
2023-05-22T11:08:48.325Z,30.27
2023-05-22T11:11:21.676Z,29.98
2023-05-22T11:14:18.473Z,30.50
2023-05-22T11:17:08.727Z,31.58
2023-05-22T11:22:51.530Z,31.42
2023-05-22T11:25:53.336Z,31.21
2023-05-22T11:31:33.830Z,30.24
2023-05-22T11:34:41.308Z,30.09
2023-05-22T11:37:26.571Z,29.57
2023-05-22T11:40:07.332Z,30.16
2023-05-22T11:42:41.207Z,29.82
2023-05-22T11:45:19.634Z,30.04
2023-05-22T12:04:21.608Z,29.23
2023-05-22T12:07:41.628Z,29.64
2023-05-22T12:10:27.521Z,29.04
2023-05-22T12:13:45.826Z,28.71
2023-05-22T12:16:29.424Z,29.65
2023-05-22T12:19:05.342Z,29.57
2023-05-22T12:21:42.556Z,29.73
2023-05-22T12:24:22.184Z,29.80
2023-05-22T12:27:13.281Z,29.47
2023-05-22T12:29:47.830Z,29.53
2023-05-22T12:32:27.705Z,29.28
2023-05-22T12:35:40.436Z,29.01
2023-05-22T12:38:36.234Z,28.95
2023-05-22T12:41:14.523Z,28.60
2023-05-22T12:44:26.414Z,29.33
2023-05-22T12:47:07.759Z,29.31
2023-05-22T12:49:54.594Z,28.88
2023-05-22T12:59:48.958Z,29.03
2023-05-22T13:12:08.951Z,29.48
2023-05-22T13:15:20.171Z,28.76
2023-05-22T13:18:19.969Z,28.74
2023-05-22T13:33:55.507Z,28.14
2023-05-22T13:36:37.474Z,28.31
2023-05-22T13:39:17.815Z,28.42
2023-05-22T13:42:00.124Z,28.10
2023-05-22T13:44:37.162Z,27.48
2023-05-22T13:47:26.413Z,28.45
2023-05-22T13:51:10.353Z,27.42
2023-05-22T13:54:10.449Z,27.60
2023-05-22T13:57:26.237Z,27.88
2023-05-22T14:00:42.073Z,27.23
2023-05-22T14:03:30.029Z,27.21
2023-05-22T14:09:25.975Z,27.38
2023-05-22T14:12:09.231Z,26.79
2023-05-22T14:34:35.882Z,26.38
2023-05-22T14:37:08.710Z,26.47
2023-05-22T14:39:42.353Z,27.10
2023-05-22T14:42:31.006Z,26.72
2023-05-22T14:45:22.002Z,26.52
2023-05-22T14:54:35.772Z,26.55
2023-05-22T15:11:06.195Z,26.98
2023-05-22T15:20:55.450Z,27.03
2023-05-22T15:23:30.603Z,26.81
2023-05-22T15:26:45.628Z,26.80
2023-05-22T15:29:27.502Z,26.64
2023-05-22T15:32:04.787Z,26.27
2023-05-22T15:34:43.162Z,26.93
2023-05-22T15:47:44.225Z,27.11
2023-05-22T15:51:02.193Z,26.93
2023-05-22T15:58:22.906Z,27.04
2023-05-22T16:04:59.496Z,26.87
2023-05-22T16:07:43.523Z,27.13
2023-05-22T16:10:49.713Z,27.12
2023-05-22T16:23:15.960Z,26.79
2023-05-22T16:43:46.463Z,27.62
2023-05-22T16:46:26.872Z,27.56
2023-05-22T16:49:10.533Z,27.63
2023-05-22T16:51:52.584Z,27.81
2023-05-22T16:54:55.535Z,27.56
2023-05-22T16:57:36.365Z,27.58
2023-05-22T17:00:35.212Z,27.63
2023-05-22T17:03:35.829Z,27.83
2023-05-22T17:06:23.611Z,27.88
2023-05-22T17:09:05.321Z,28.00
2023-05-22T17:11:45.395Z,27.75
2023-05-22T17:14:41.454Z,27.89
2023-05-22T17:17:44.072Z,28.25
2023-05-22T17:20:31.140Z,27.96
2023-05-22T17:23:09.680Z,28.09
2023-05-22T17:25:48.143Z,28.31
2023-05-22T17:28:26.618Z,28.45
2023-05-22T17:31:03.351Z,28.37
2023-05-22T17:33:50.162Z,28.31
2023-05-22T17:36:45.462Z,28.67
2023-05-22T17:39:42.570Z,28.60
2023-05-22T17:42:28.963Z,28.43
2023-05-22T17:48:49.282Z,29.34
2023-05-22T17:52:21.840Z,29.10
2023-05-22T17:55:30.138Z,29.24
2023-05-22T18:47:07.427Z,30.52
2023-05-22T18:49:45.827Z,30.85
2023-05-22T18:52:26.590Z,31.04
2023-05-22T18:55:07.669Z,31.60
2023-05-22T18:57:49.381Z,31.63
2023-05-22T19:00:33.381Z,31.67
2023-05-22T19:07:12.187Z,31.67
2023-05-22T19:09:58.677Z,31.60
2023-05-22T19:12:42.852Z,31.82
2023-05-22T19:16:08.199Z,31.91
2023-05-22T19:19:47.213Z,32.00
2023-05-22T19:32:24.384Z,32.26
2023-05-22T19:41:35.055Z,32.52
2023-05-22T19:44:15.047Z,32.90
2023-05-22T19:47:23.901Z,33.00
2023-05-22T19:53:25.620Z,33.04
2023-05-22T19:56:25.761Z,33.30
2023-05-22T19:59:06.434Z,33.22
2023-05-22T20:04:54.231Z,33.74
2023-05-22T20:11:05.154Z,34.09
2023-05-22T20:14:10.489Z,34.19
2023-05-22T20:22:51.251Z,34.45
2023-05-22T20:25:32.251Z,34.44
2023-05-22T20:32:25.789Z,35.12
2023-05-22T21:01:47.392Z,36.43
2023-05-22T21:07:28.818Z,36.61
2023-05-22T21:13:40.986Z,36.82
2023-05-22T21:22:31.520Z,37.17
2023-05-22T21:25:50.095Z,37.16
2023-05-22T21:28:55.034Z,37.60
2023-05-22T21:35:29.744Z,37.60
2023-05-22T21:38:10.350Z,37.83
2023-05-22T21:44:20.624Z,37.81
2023-05-22T21:53:06.025Z,38.22
2023-05-22T21:55:47.531Z,38.27
2023-05-22T21:58:25.211Z,38.31
2023-05-22T22:10:08.539Z,38.90
2023-05-22T22:12:54.025Z,39.14
2023-05-22T22:15:33.964Z,39.24
2023-05-22T22:18:18.641Z,38.96
2023-05-22T22:21:08.162Z,39.25
2023-05-22T22:23:51.997Z,39.65
2023-05-22T22:26:35.024Z,39.38
2023-05-22T22:29:14.483Z,39.80
2023-05-22T22:31:59.456Z,39.81
2023-05-22T22:35:03.894Z,39.85
2023-05-22T22:37:41.636Z,39.47
2023-05-22T22:40:20.119Z,39.84
2023-05-22T22:42:57.838Z,40.13
2023-05-22T22:45:39.002Z,40.32
2023-05-22T22:48:17.727Z,40.23
2023-05-22T22:53:59.594Z,40.63
2023-05-22T22:56:44.320Z,40.66
2023-05-22T22:59:43.994Z,40.49
2023-05-22T23:02:35.942Z,40.40
2023-05-22T23:05:23.769Z,40.68
2023-05-22T23:08:17.876Z,40.68
2023-05-22T23:10:54.715Z,40.99
2023-05-22T23:13:36.952Z,40.61
2023-05-22T23:16:26.982Z,40.93
2023-05-22T23:19:18.411Z,40.55
2023-05-22T23:22:16.426Z,40.83
2023-05-22T23:25:11.963Z,40.70
2023-05-22T23:27:48.915Z,40.89
2023-05-22T23:30:28.526Z,40.91
2023-05-22T23:33:09.717Z,40.89
2023-05-22T23:35:43.776Z,41.17
2023-05-22T23:38:17.470Z,41.22
2023-05-22T23:40:54.796Z,41.15
2023-05-22T23:43:26.723Z,41.29
2023-05-22T23:45:59.187Z,40.83
2023-05-22T23:48:31.982Z,41.02
2023-05-22T23:51:09.407Z,41.49
2023-05-22T23:53:41.765Z,41.27
2023-05-22T23:56:21.150Z,41.50
2023-05-22T23:58:53.234Z,40.96
